sensor_id;sensor_type;location;lat;lon;timestamp;P1;durP1;ratioP1;P2;durP2;ratioP2
16502;SDS011;53067;48.114;11.694;2023-01-29T00:02:02;22.90;;;13.43;;
16502;SDS011;53067;48.114;11.694;2023-01-29T00:04:30;22.77;;;13.70;;
16502;SDS011;53067;48.114;11.694;2023-01-29T00:06:58;22.07;;;14.10;;
16502;SDS011;53067;48.114;11.694;2023-01-29T00:09:26;25.00;;;14.13;;
16502;SDS011;53067;48.114;11.694;2023-01-29T00:11:54;23.27;;;12.70;;
16502;SDS011;53067;48.114;11.694;2023-01-29T00:14:21;20.37;;;13.10;;
16502;SDS011;53067;48.114;11.694;2023-01-29T00:16:49;22.80;;;13.70;;
16502;SDS011;53067;48.114;11.694;2023-01-29T00:19:16;24.03;;;13.47;;
16502;SDS011;53067;48.114;11.694;2023-01-29T00:21:44;18.20;;;11.37;;
16502;SDS011;53067;48.114;11.694;2023-01-29T00:24:12;19.60;;;12.93;;
16502;SDS011;53067;48.114;11.694;2023-01-29T00:26:40;18.30;;;12.13;;
16502;SDS011;53067;48.114;11.694;2023-01-29T00:29:07;20.50;;;12.43;;
16502;SDS011;53067;48.114;11.694;2023-01-29T00:31:35;18.33;;;11.73;;
16502;SDS011;53067;48.114;11.694;2023-01-29T00:34:03;21.07;;;12.67;;
16502;SDS011;53067;48.114;11.694;2023-01-29T00:36:31;15.37;;;11.37;;
16502;SDS011;53067;48.114;11.694;2023-01-29T00:38:59;17.17;;;11.60;;
16502;SDS011;53067;48.114;11.694;2023-01-29T00:41:29;20.80;;;11.90;;
16502;SDS011;53067;48.114;11.694;2023-01-29T00:44:16;21.03;;;12.80;;
16502;SDS011;53067;48.114;11.694;2023-01-29T00:47:02;18.23;;;11.80;;
16502;SDS011;53067;48.114;11.694;2023-01-29T00:49:32;18.10;;;12.10;;
16502;SDS011;53067;48.114;11.694;2023-01-29T00:51:59;17.07;;;11.83;;
16502;SDS011;53067;48.114;11.694;2023-01-29T00:54:45;19.17;;;12.33;;
16502;SDS011;53067;48.114;11.694;2023-01-29T00:57:12;18.37;;;12.13;;
16502;SDS011;53067;48.114;11.694;2023-01-29T00:59:40;21.43;;;12.73;;
16502;SDS011;53067;48.114;11.694;2023-01-29T01:02:07;19.83;;;12.47;;
16502;SDS011;53067;48.114;11.694;2023-01-29T01:04:58;19.57;;;11.23;;
16502;SDS011;53067;48.114;11.694;2023-01-29T01:07:28;18.97;;;12.97;;
16502;SDS011;53067;48.114;11.694;2023-01-29T01:09:56;18.27;;;12.30;;
16502;SDS011;53067;48.114;11.694;2023-01-29T01:12:41;15.27;;;10.67;;
16502;SDS011;53067;48.114;11.694;2023-01-29T01:15:09;15.97;;;11.47;;
16502;SDS011;53067;48.114;11.694;2023-01-29T01:17:37;16.33;;;10.93;;
16502;SDS011;53067;48.114;11.694;2023-01-29T01:20:05;15.87;;;11.20;;
16502;SDS011;53067;48.114;11.694;2023-01-29T01:22:34;16.40;;;10.93;;
16502;SDS011;53067;48.114;11.694;2023-01-29T01:25:02;15.10;;;10.67;;
16502;SDS011;53067;48.114;11.694;2023-01-29T01:27:29;16.13;;;10.77;;
16502;SDS011;53067;48.114;11.694;2023-01-29T01:29:57;14.93;;;10.97;;
16502;SDS011;53067;48.114;11.694;2023-01-29T01:32:24;16.40;;;10.87;;
16502;SDS011;53067;48.114;11.694;2023-01-29T01:34:52;11.80;;;9.83;;
16502;SDS011;53067;48.114;11.694;2023-01-29T01:37:21;14.17;;;10.50;;
16502;SDS011;53067;48.114;11.694;2023-01-29T01:39:49;14.33;;;10.27;;
16502;SDS011;53067;48.114;11.694;2023-01-29T01:42:16;16.63;;;11.20;;
16502;SDS011;53067;48.114;11.694;2023-01-29T01:44:52;15.63;;;11.20;;
16502;SDS011;53067;48.114;11.694;2023-01-29T01:47:25;13.97;;;10.47;;
16502;SDS011;53067;48.114;11.694;2023-01-29T01:49:51;14.83;;;10.90;;
16502;SDS011;53067;48.114;11.694;2023-01-29T01:52:20;15.60;;;10.53;;
16502;SDS011;53067;48.114;11.694;2023-01-29T01:54:48;13.77;;;10.50;;
16502;SDS011;53067;48.114;11.694;2023-01-29T01:57:17;13.80;;;10.47;;
16502;SDS011;53067;48.114;11.694;2023-01-29T01:59:51;14.07;;;10.03;;
16502;SDS011;53067;48.114;11.694;2023-01-29T02:02:20;12.27;;;9.43;;
16502;SDS011;53067;48.114;11.694;2023-01-29T02:05:05;12.23;;;9.33;;
16502;SDS011;53067;48.114;11.694;2023-01-29T02:07:51;14.23;;;10.97;;
16502;SDS011;53067;48.114;11.694;2023-01-29T02:10:40;13.70;;;10.43;;
16502;SDS011;53067;48.114;11.694;2023-01-29T02:13:10;12.10;;;9.27;;
16502;SDS011;53067;48.114;11.694;2023-01-29T02:15:41;12.87;;;9.37;;
16502;SDS011;53067;48.114;11.694;2023-01-29T02:18:10;12.33;;;9.50;;
16502;SDS011;53067;48.114;11.694;2023-01-29T02:20:40;12.93;;;9.80;;
16502;SDS011;53067;48.114;11.694;2023-01-29T02:25:58;15.17;;;9.90;;
16502;SDS011;53067;48.114;11.694;2023-01-29T02:28:51;14.17;;;9.30;;
16502;SDS011;53067;48.114;11.694;2023-01-29T02:31:28;15.83;;;10.33;;
16502;SDS011;53067;48.114;11.694;2023-01-29T02:44:39;12.73;;;10.33;;
16502;SDS011;53067;48.114;11.694;2023-01-29T02:47:15;13.07;;;10.93;;
16502;SDS011;53067;48.114;11.694;2023-01-29T02:52:22;12.87;;;10.20;;
16502;SDS011;53067;48.114;11.694;2023-01-29T02:54:57;12.93;;;9.73;;
16502;SDS011;53067;48.114;11.694;2023-01-29T02:57:31;12.87;;;9.87;;
16502;SDS011;53067;48.114;11.694;2023-01-29T03:00:06;12.73;;;9.80;;
16502;SDS011;53067;48.114;11.694;2023-01-29T03:05:13;14.53;;;10.37;;
16502;SDS011;53067;48.114;11.694;2023-01-29T03:07:47;14.07;;;10.20;;
16502;SDS011;53067;48.114;11.694;2023-01-29T03:10:22;12.77;;;10.10;;
16502;SDS011;53067;48.114;11.694;2023-01-29T03:13:18;12.60;;;10.30;;
16502;SDS011;53067;48.114;11.694;2023-01-29T03:16:03;11.87;;;10.13;;
16502;SDS011;53067;48.114;11.694;2023-01-29T03:18:34;14.70;;;10.60;;
16502;SDS011;53067;48.114;11.694;2023-01-29T03:21:05;17.20;;;10.77;;
16502;SDS011;53067;48.114;11.694;2023-01-29T03:23:36;14.10;;;9.70;;
16502;SDS011;53067;48.114;11.694;2023-01-29T03:26:43;15.10;;;10.10;;
16502;SDS011;53067;48.114;11.694;2023-01-29T03:29:33;14.50;;;10.13;;
16502;SDS011;53067;48.114;11.694;2023-01-29T03:32:16;15.47;;;10.97;;
16502;SDS011;53067;48.114;11.694;2023-01-29T03:34:49;13.57;;;10.07;;
16502;SDS011;53067;48.114;11.694;2023-01-29T03:37:25;13.93;;;10.13;;
16502;SDS011;53067;48.114;11.694;2023-01-29T03:39:53;14.73;;;11.13;;
16502;SDS011;53067;48.114;11.694;2023-01-29T03:42:26;14.77;;;10.43;;
16502;SDS011;53067;48.114;11.694;2023-01-29T03:45:13;17.80;;;11.77;;
16502;SDS011;53067;48.114;11.694;2023-01-29T03:47:48;16.50;;;11.10;;
16502;SDS011;53067;48.114;11.694;2023-01-29T03:50:28;16.03;;;11.40;;
16502;SDS011;53067;48.114;11.694;2023-01-29T03:55:52;16.27;;;10.90;;
16502;SDS011;53067;48.114;11.694;2023-01-29T03:58:43;17.57;;;12.40;;
16502;SDS011;53067;48.114;11.694;2023-01-29T04:01:53;17.60;;;12.17;;
16502;SDS011;53067;48.114;11.694;2023-01-29T04:04:08;18.00;;;12.40;;
16502;SDS011;53067;48.114;11.694;2023-01-29T04:06:37;16.37;;;11.47;;
16502;SDS011;53067;48.114;11.694;2023-01-29T04:09:15;17.40;;;11.63;;
16502;SDS011;53067;48.114;11.694;2023-01-29T04:11:51;18.47;;;12.33;;
16502;SDS011;53067;48.114;11.694;2023-01-29T04:14:16;14.93;;;11.67;;
16502;SDS011;53067;48.114;11.694;2023-01-29T04:16:46;17.67;;;11.87;;
16502;SDS011;53067;48.114;11.694;2023-01-29T04:19:15;18.33;;;12.27;;
16502;SDS011;53067;48.114;11.694;2023-01-29T04:21:42;17.87;;;11.83;;
16502;SDS011;53067;48.114;11.694;2023-01-29T04:24:13;17.37;;;11.90;;
16502;SDS011;53067;48.114;11.694;2023-01-29T04:26:54;17.03;;;11.87;;
16502;SDS011;53067;48.114;11.694;2023-01-29T04:29:45;16.60;;;11.47;;
16502;SDS011;53067;48.114;11.694;2023-01-29T04:32:18;14.77;;;11.73;;
16502;SDS011;53067;48.114;11.694;2023-01-29T04:37:32;15.60;;;11.50;;
16502;SDS011;53067;48.114;11.694;2023-01-29T04:40:06;17.33;;;10.67;;
16502;SDS011;53067;48.114;11.694;2023-01-29T04:42:40;15.77;;;11.43;;
16502;SDS011;53067;48.114;11.694;2023-01-29T04:45:10;15.37;;;11.30;;
16502;SDS011;53067;48.114;11.694;2023-01-29T04:50:53;18.10;;;11.93;;
16502;SDS011;53067;48.114;11.694;2023-01-29T04:53:21;17.23;;;11.90;;
16502;SDS011;53067;48.114;11.694;2023-01-29T04:55:56;15.97;;;11.33;;
16502;SDS011;53067;48.114;11.694;2023-01-29T05:01:01;16.77;;;11.17;;
16502;SDS011;53067;48.114;11.694;2023-01-29T05:03:32;15.47;;;11.43;;
16502;SDS011;53067;48.114;11.694;2023-01-29T05:06:01;15.20;;;10.90;;
16502;SDS011;53067;48.114;11.694;2023-01-29T05:08:30;16.27;;;11.40;;
16502;SDS011;53067;48.114;11.694;2023-01-29T05:10:59;15.00;;;11.17;;
16502;SDS011;53067;48.114;11.694;2023-01-29T05:13:27;16.10;;;10.97;;
16502;SDS011;53067;48.114;11.694;2023-01-29T05:18:52;17.57;;;11.47;;
16502;SDS011;53067;48.114;11.694;2023-01-29T05:21:20;13.33;;;10.30;;
16502;SDS011;53067;48.114;11.694;2023-01-29T05:26:43;18.27;;;12.07;;
16502;SDS011;53067;48.114;11.694;2023-01-29T05:29:30;13.80;;;10.70;;
16502;SDS011;53067;48.114;11.694;2023-01-29T05:31:58;16.23;;;11.17;;
16502;SDS011;53067;48.114;11.694;2023-01-29T05:34:26;16.17;;;10.93;;
16502;SDS011;53067;48.114;11.694;2023-01-29T05:36:53;16.67;;;11.40;;
16502;SDS011;53067;48.114;11.694;2023-01-29T05:39:21;17.60;;;12.17;;
16502;SDS011;53067;48.114;11.694;2023-01-29T05:41:48;18.43;;;12.57;;
16502;SDS011;53067;48.114;11.694;2023-01-29T05:44:16;16.57;;;11.70;;
16502;SDS011;53067;48.114;11.694;2023-01-29T05:46:44;17.40;;;12.37;;
16502;SDS011;53067;48.114;11.694;2023-01-29T05:49:11;15.97;;;10.87;;
16502;SDS011;53067;48.114;11.694;2023-01-29T05:51:39;14.80;;;11.50;;
16502;SDS011;53067;48.114;11.694;2023-01-29T05:54:06;16.70;;;11.23;;
16502;SDS011;53067;48.114;11.694;2023-01-29T05:56:35;15.07;;;11.10;;
16502;SDS011;53067;48.114;11.694;2023-01-29T05:59:03;14.40;;;9.70;;
16502;SDS011;53067;48.114;11.694;2023-01-29T06:01:32;14.60;;;10.80;;
16502;SDS011;53067;48.114;11.694;2023-01-29T06:03:59;14.87;;;10.30;;
16502;SDS011;53067;48.114;11.694;2023-01-29T06:06:27;15.87;;;10.93;;
16502;SDS011;53067;48.114;11.694;2023-01-29T06:08:54;14.83;;;10.77;;
16502;SDS011;53067;48.114;11.694;2023-01-29T06:11:22;15.77;;;10.90;;
16502;SDS011;53067;48.114;11.694;2023-01-29T06:13:49;15.70;;;10.57;;
16502;SDS011;53067;48.114;11.694;2023-01-29T06:16:17;16.80;;;11.67;;
16502;SDS011;53067;48.114;11.694;2023-01-29T06:18:44;14.73;;;10.63;;
16502;SDS011;53067;48.114;11.694;2023-01-29T06:21:12;15.23;;;10.37;;
16502;SDS011;53067;48.114;11.694;2023-01-29T06:23:40;16.07;;;11.60;;
16502;SDS011;53067;48.114;11.694;2023-01-29T06:26:09;17.70;;;11.40;;
16502;SDS011;53067;48.114;11.694;2023-01-29T06:28:38;13.77;;;10.23;;
16502;SDS011;53067;48.114;11.694;2023-01-29T06:31:09;14.63;;;10.43;;
16502;SDS011;53067;48.114;11.694;2023-01-29T06:33:37;16.27;;;11.47;;
16502;SDS011;53067;48.114;11.694;2023-01-29T06:36:05;12.93;;;10.37;;
16502;SDS011;53067;48.114;11.694;2023-01-29T06:38:33;15.63;;;10.80;;
16502;SDS011;53067;48.114;11.694;2023-01-29T06:41:06;13.20;;;9.90;;
16502;SDS011;53067;48.114;11.694;2023-01-29T06:43:36;15.90;;;10.17;;
16502;SDS011;53067;48.114;11.694;2023-01-29T06:46:05;15.93;;;10.73;;
16502;SDS011;53067;48.114;11.694;2023-01-29T06:48:33;14.60;;;10.13;;
16502;SDS011;53067;48.114;11.694;2023-01-29T06:51:06;14.33;;;9.60;;
16502;SDS011;53067;48.114;11.694;2023-01-29T06:53:35;11.87;;;9.33;;
16502;SDS011;53067;48.114;11.694;2023-01-29T06:56:04;13.80;;;9.90;;
16502;SDS011;53067;48.114;11.694;2023-01-29T06:58:32;13.00;;;9.43;;
16502;SDS011;53067;48.114;11.694;2023-01-29T07:01:10;7.37;;;5.57;;
16502;SDS011;53067;48.114;11.694;2023-01-29T07:03:35;7.70;;;5.60;;
16502;SDS011;53067;48.114;11.694;2023-01-29T07:06:03;4.70;;;4.20;;
16502;SDS011;53067;48.114;11.694;2023-01-29T07:08:34;5.20;;;3.90;;
16502;SDS011;53067;48.114;11.694;2023-01-29T07:11:04;5.53;;;4.03;;
16502;SDS011;53067;48.114;11.694;2023-01-29T07:13:33;4.07;;;3.63;;
16502;SDS011;53067;48.114;11.694;2023-01-29T07:16:01;4.17;;;3.63;;
16502;SDS011;53067;48.114;11.694;2023-01-29T07:18:30;4.30;;;3.47;;
16502;SDS011;53067;48.114;11.694;2023-01-29T07:20:58;5.60;;;3.87;;
16502;SDS011;53067;48.114;11.694;2023-01-29T07:23:27;4.50;;;3.73;;
16502;SDS011;53067;48.114;11.694;2023-01-29T07:25:54;6.77;;;3.87;;
16502;SDS011;53067;48.114;11.694;2023-01-29T07:28:22;5.93;;;4.00;;
16502;SDS011;53067;48.114;11.694;2023-01-29T07:30:49;6.33;;;5.10;;
16502;SDS011;53067;48.114;11.694;2023-01-29T07:33:20;8.10;;;5.90;;
16502;SDS011;53067;48.114;11.694;2023-01-29T07:35:47;7.67;;;6.20;;
16502;SDS011;53067;48.114;11.694;2023-01-29T07:38:15;7.40;;;6.17;;
16502;SDS011;53067;48.114;11.694;2023-01-29T07:40:43;8.23;;;5.90;;
16502;SDS011;53067;48.114;11.694;2023-01-29T07:43:11;8.30;;;6.77;;
16502;SDS011;53067;48.114;11.694;2023-01-29T07:45:39;9.73;;;7.70;;
16502;SDS011;53067;48.114;11.694;2023-01-29T07:48:08;11.23;;;8.47;;
16502;SDS011;53067;48.114;11.694;2023-01-29T07:50:37;7.17;;;5.47;;
16502;SDS011;53067;48.114;11.694;2023-01-29T07:53:05;6.20;;;5.07;;
16502;SDS011;53067;48.114;11.694;2023-01-29T07:55:33;6.17;;;4.93;;
16502;SDS011;53067;48.114;11.694;2023-01-29T07:58:01;7.47;;;5.17;;
16502;SDS011;53067;48.114;11.694;2023-01-29T08:00:29;7.93;;;5.33;;
16502;SDS011;53067;48.114;11.694;2023-01-29T08:03:04;6.40;;;5.50;;
16502;SDS011;53067;48.114;11.694;2023-01-29T08:05:37;5.90;;;5.17;;
16502;SDS011;53067;48.114;11.694;2023-01-29T08:08:04;7.93;;;6.13;;
16502;SDS011;53067;48.114;11.694;2023-01-29T08:10:32;9.17;;;6.43;;
16502;SDS011;53067;48.114;11.694;2023-01-29T08:13:01;8.23;;;6.20;;
16502;SDS011;53067;48.114;11.694;2023-01-29T08:15:29;8.67;;;7.07;;
16502;SDS011;53067;48.114;11.694;2023-01-29T08:17:57;9.13;;;6.47;;
16502;SDS011;53067;48.114;11.694;2023-01-29T08:20:26;7.60;;;5.73;;
16502;SDS011;53067;48.114;11.694;2023-01-29T08:22:57;6.27;;;4.80;;
16502;SDS011;53067;48.114;11.694;2023-01-29T08:25:25;6.10;;;5.10;;
16502;SDS011;53067;48.114;11.694;2023-01-29T08:27:54;8.00;;;5.67;;
16502;SDS011;53067;48.114;11.694;2023-01-29T08:30:26;6.90;;;5.47;;
16502;SDS011;53067;48.114;11.694;2023-01-29T08:32:55;6.90;;;5.17;;
16502;SDS011;53067;48.114;11.694;2023-01-29T08:35:23;5.93;;;5.30;;
16502;SDS011;53067;48.114;11.694;2023-01-29T08:37:57;6.97;;;5.17;;
16502;SDS011;53067;48.114;11.694;2023-01-29T08:40:22;6.73;;;5.67;;
16502;SDS011;53067;48.114;11.694;2023-01-29T08:42:51;7.50;;;5.60;;
16502;SDS011;53067;48.114;11.694;2023-01-29T08:45:18;6.50;;;5.17;;
16502;SDS011;53067;48.114;11.694;2023-01-29T08:47:46;6.10;;;5.00;;
16502;SDS011;53067;48.114;11.694;2023-01-29T08:50:15;6.10;;;5.47;;
16502;SDS011;53067;48.114;11.694;2023-01-29T08:52:43;6.47;;;5.43;;
16502;SDS011;53067;48.114;11.694;2023-01-29T08:55:11;7.30;;;5.30;;
16502;SDS011;53067;48.114;11.694;2023-01-29T08:57:39;6.17;;;5.13;;
16502;SDS011;53067;48.114;11.694;2023-01-29T09:00:07;6.03;;;4.77;;
16502;SDS011;53067;48.114;11.694;2023-01-29T09:02:36;6.33;;;4.93;;
16502;SDS011;53067;48.114;11.694;2023-01-29T09:05:05;6.87;;;5.03;;
16502;SDS011;53067;48.114;11.694;2023-01-29T09:07:33;7.43;;;5.43;;
16502;SDS011;53067;48.114;11.694;2023-01-29T09:10:01;8.00;;;5.53;;
16502;SDS011;53067;48.114;11.694;2023-01-29T09:12:28;7.07;;;5.60;;
16502;SDS011;53067;48.114;11.694;2023-01-29T09:14:56;7.80;;;6.03;;
16502;SDS011;53067;48.114;11.694;2023-01-29T09:17:23;7.20;;;5.40;;
16502;SDS011;53067;48.114;11.694;2023-01-29T09:19:51;5.40;;;4.90;;
16502;SDS011;53067;48.114;11.694;2023-01-29T09:22:18;6.50;;;5.50;;
16502;SDS011;53067;48.114;11.694;2023-01-29T09:24:46;5.73;;;5.10;;
16502;SDS011;53067;48.114;11.694;2023-01-29T09:27:14;6.77;;;5.23;;
16502;SDS011;53067;48.114;11.694;2023-01-29T09:29:41;6.67;;;4.93;;
16502;SDS011;53067;48.114;11.694;2023-01-29T09:32:09;6.70;;;5.53;;
16502;SDS011;53067;48.114;11.694;2023-01-29T09:34:37;5.40;;;4.90;;
16502;SDS011;53067;48.114;11.694;2023-01-29T09:37:04;6.00;;;5.40;;
16502;SDS011;53067;48.114;11.694;2023-01-29T09:39:32;6.37;;;5.00;;
16502;SDS011;53067;48.114;11.694;2023-01-29T09:42:05;6.77;;;5.47;;
16502;SDS011;53067;48.114;11.694;2023-01-29T09:44:45;6.70;;;5.63;;
16502;SDS011;53067;48.114;11.694;2023-01-29T09:47:18;6.10;;;5.33;;
16502;SDS011;53067;48.114;11.694;2023-01-29T09:49:59;11.27;;;7.87;;
16502;SDS011;53067;48.114;11.694;2023-01-29T09:52:39;13.03;;;9.30;;
16502;SDS011;53067;48.114;11.694;2023-01-29T09:55:28;9.27;;;7.23;;
16502;SDS011;53067;48.114;11.694;2023-01-29T09:58:02;21.60;;;13.00;;
16502;SDS011;53067;48.114;11.694;2023-01-29T10:00:41;17.80;;;12.13;;
16502;SDS011;53067;48.114;11.694;2023-01-29T10:06:04;6.83;;;5.70;;
16502;SDS011;53067;48.114;11.694;2023-01-29T10:09:00;7.30;;;5.40;;
16502;SDS011;53067;48.114;11.694;2023-01-29T10:11:31;6.10;;;5.50;;
16502;SDS011;53067;48.114;11.694;2023-01-29T10:22:48;6.53;;;5.93;;
16502;SDS011;53067;48.114;11.694;2023-01-29T10:25:22;7.37;;;5.60;;
16502;SDS011;53067;48.114;11.694;2023-01-29T10:27:49;6.90;;;5.40;;
16502;SDS011;53067;48.114;11.694;2023-01-29T10:32:55;6.03;;;5.43;;
16502;SDS011;53067;48.114;11.694;2023-01-29T10:44:00;7.93;;;6.40;;
16502;SDS011;53067;48.114;11.694;2023-01-29T10:46:56;7.03;;;6.33;;
16502;SDS011;53067;48.114;11.694;2023-01-29T10:55:41;7.40;;;6.17;;
16502;SDS011;53067;48.114;11.694;2023-01-29T10:58:13;7.70;;;6.90;;
16502;SDS011;53067;48.114;11.694;2023-01-29T11:00:40;9.20;;;6.87;;
16502;SDS011;53067;48.114;11.694;2023-01-29T11:03:17;8.10;;;7.00;;
16502;SDS011;53067;48.114;11.694;2023-01-29T11:08:23;10.17;;;7.33;;
16502;SDS011;53067;48.114;11.694;2023-01-29T11:14:01;9.13;;;7.13;;
16502;SDS011;53067;48.114;11.694;2023-01-29T11:16:39;7.83;;;7.00;;
16502;SDS011;53067;48.114;11.694;2023-01-29T11:19:09;8.13;;;6.67;;
16502;SDS011;53067;48.114;11.694;2023-01-29T11:21:50;11.47;;;8.53;;
16502;SDS011;53067;48.114;11.694;2023-01-29T11:24:20;9.67;;;8.00;;
16502;SDS011;53067;48.114;11.694;2023-01-29T11:26:48;8.00;;;6.93;;
16502;SDS011;53067;48.114;11.694;2023-01-29T11:34:55;6.97;;;6.17;;
16502;SDS011;53067;48.114;11.694;2023-01-29T11:37:34;8.80;;;7.03;;
16502;SDS011;53067;48.114;11.694;2023-01-29T11:42:49;10.23;;;7.53;;
16502;SDS011;53067;48.114;11.694;2023-01-29T11:47:53;7.93;;;6.33;;
16502;SDS011;53067;48.114;11.694;2023-01-29T11:50:23;7.73;;;6.70;;
16502;SDS011;53067;48.114;11.694;2023-01-29T11:52:52;7.37;;;6.67;;
16502;SDS011;53067;48.114;11.694;2023-01-29T11:55:21;8.27;;;6.80;;
16502;SDS011;53067;48.114;11.694;2023-01-29T12:00:34;7.50;;;6.77;;
16502;SDS011;53067;48.114;11.694;2023-01-29T12:05:57;13.27;;;8.67;;
16502;SDS011;53067;48.114;11.694;2023-01-29T12:08:31;9.90;;;7.70;;
16502;SDS011;53067;48.114;11.694;2023-01-29T12:11:14;17.00;;;10.50;;
16502;SDS011;53067;48.114;11.694;2023-01-29T12:13:41;9.10;;;7.13;;
16502;SDS011;53067;48.114;11.694;2023-01-29T12:16:17;9.10;;;6.87;;
16502;SDS011;53067;48.114;11.694;2023-01-29T12:18:53;7.97;;;6.90;;
16502;SDS011;53067;48.114;11.694;2023-01-29T12:24:23;9.23;;;7.13;;
16502;SDS011;53067;48.114;11.694;2023-01-29T12:26:58;8.03;;;5.67;;
16502;SDS011;53067;48.114;11.694;2023-01-29T12:29:24;6.97;;;5.97;;
16502;SDS011;53067;48.114;11.694;2023-01-29T12:35:09;7.83;;;5.37;;
16502;SDS011;53067;48.114;11.694;2023-01-29T12:37:42;7.63;;;5.73;;
16502;SDS011;53067;48.114;11.694;2023-01-29T12:40:19;6.80;;;6.10;;
16502;SDS011;53067;48.114;11.694;2023-01-29T12:42:50;7.40;;;6.20;;
16502;SDS011;53067;48.114;11.694;2023-01-29T12:45:21;6.37;;;5.77;;
16502;SDS011;53067;48.114;11.694;2023-01-29T12:47:58;7.27;;;5.80;;
16502;SDS011;53067;48.114;11.694;2023-01-29T12:50:34;6.87;;;5.90;;
16502;SDS011;53067;48.114;11.694;2023-01-29T12:53:07;6.97;;;5.97;;
16502;SDS011;53067;48.114;11.694;2023-01-29T12:55:40;6.73;;;5.60;;
16502;SDS011;53067;48.114;11.694;2023-01-29T12:58:16;7.83;;;6.03;;
16502;SDS011;53067;48.114;11.694;2023-01-29T13:00:49;7.07;;;6.37;;
16502;SDS011;53067;48.114;11.694;2023-01-29T13:05:50;7.40;;;6.17;;
16502;SDS011;53067;48.114;11.694;2023-01-29T13:08:25;8.90;;;7.23;;
16502;SDS011;53067;48.114;11.694;2023-01-29T13:11:00;7.03;;;6.03;;
16502;SDS011;53067;48.114;11.694;2023-01-29T13:13:32;8.47;;;6.80;;
16502;SDS011;53067;48.114;11.694;2023-01-29T13:16:05;8.20;;;6.80;;
16502;SDS011;53067;48.114;11.694;2023-01-29T13:21:24;8.43;;;6.50;;
16502;SDS011;53067;48.114;11.694;2023-01-29T13:23:54;8.43;;;6.27;;
16502;SDS011;53067;48.114;11.694;2023-01-29T13:26:26;9.47;;;6.37;;
16502;SDS011;53067;48.114;11.694;2023-01-29T13:28:55;7.90;;;6.67;;
16502;SDS011;53067;48.114;11.694;2023-01-29T13:31:27;6.90;;;5.70;;
16502;SDS011;53067;48.114;11.694;2023-01-29T13:34:11;7.90;;;6.13;;
16502;SDS011;53067;48.114;11.694;2023-01-29T13:36:53;7.87;;;6.87;;
16502;SDS011;53067;48.114;11.694;2023-01-29T13:39:25;7.97;;;6.40;;
16502;SDS011;53067;48.114;11.694;2023-01-29T13:41:54;8.83;;;6.97;;
16502;SDS011;53067;48.114;11.694;2023-01-29T13:44:27;7.80;;;6.30;;
16502;SDS011;53067;48.114;11.694;2023-01-29T13:47:06;8.60;;;6.83;;
16502;SDS011;53067;48.114;11.694;2023-01-29T13:49:39;7.13;;;6.33;;
16502;SDS011;53067;48.114;11.694;2023-01-29T13:54:57;8.63;;;7.53;;
16502;SDS011;53067;48.114;11.694;2023-01-29T13:57:35;8.23;;;7.27;;
16502;SDS011;53067;48.114;11.694;2023-01-29T14:02:43;8.40;;;6.10;;
16502;SDS011;53067;48.114;11.694;2023-01-29T14:08:04;9.30;;;6.93;;
16502;SDS011;53067;48.114;11.694;2023-01-29T14:10:32;6.83;;;6.07;;
16502;SDS011;53067;48.114;11.694;2023-01-29T14:18:24;6.70;;;5.73;;
16502;SDS011;53067;48.114;11.694;2023-01-29T14:20:55;7.13;;;6.17;;
16502;SDS011;53067;48.114;11.694;2023-01-29T14:28:58;7.57;;;6.23;;
16502;SDS011;53067;48.114;11.694;2023-01-29T14:34:14;10.10;;;7.63;;
16502;SDS011;53067;48.114;11.694;2023-01-29T14:36:44;9.57;;;6.43;;
16502;SDS011;53067;48.114;11.694;2023-01-29T14:39:23;7.60;;;5.87;;
16502;SDS011;53067;48.114;11.694;2023-01-29T14:41:48;7.73;;;5.73;;
16502;SDS011;53067;48.114;11.694;2023-01-29T14:47:17;7.17;;;6.47;;
16502;SDS011;53067;48.114;11.694;2023-01-29T14:49:50;8.37;;;6.27;;
16502;SDS011;53067;48.114;11.694;2023-01-29T14:52:17;9.07;;;7.30;;
16502;SDS011;53067;48.114;11.694;2023-01-29T14:54:47;8.90;;;7.40;;
16502;SDS011;53067;48.114;11.694;2023-01-29T14:57:18;9.73;;;7.57;;
16502;SDS011;53067;48.114;11.694;2023-01-29T14:59:56;10.03;;;8.23;;
16502;SDS011;53067;48.114;11.694;2023-01-29T15:02:36;10.17;;;8.10;;
16502;SDS011;53067;48.114;11.694;2023-01-29T15:04:58;10.33;;;7.83;;
16502;SDS011;53067;48.114;11.694;2023-01-29T15:07:46;10.67;;;8.53;;
16502;SDS011;53067;48.114;11.694;2023-01-29T15:10:15;10.07;;;8.17;;
16502;SDS011;53067;48.114;11.694;2023-01-29T15:12:58;10.63;;;8.07;;
16502;SDS011;53067;48.114;11.694;2023-01-29T15:15:36;10.13;;;7.97;;
16502;SDS011;53067;48.114;11.694;2023-01-29T15:18:16;10.20;;;8.40;;
16502;SDS011;53067;48.114;11.694;2023-01-29T15:21:00;10.07;;;8.00;;
16502;SDS011;53067;48.114;11.694;2023-01-29T15:23:32;12.10;;;7.80;;
16502;SDS011;53067;48.114;11.694;2023-01-29T15:26:02;9.60;;;8.07;;
16502;SDS011;53067;48.114;11.694;2023-01-29T15:28:40;10.13;;;6.97;;
16502;SDS011;53067;48.114;11.694;2023-01-29T15:31:11;10.67;;;7.50;;
16502;SDS011;53067;48.114;11.694;2023-01-29T15:33:40;8.10;;;7.10;;
16502;SDS011;53067;48.114;11.694;2023-01-29T15:36:15;9.83;;;7.80;;
16502;SDS011;53067;48.114;11.694;2023-01-29T15:38:43;11.77;;;7.83;;
16502;SDS011;53067;48.114;11.694;2023-01-29T15:41:15;8.40;;;7.00;;
16502;SDS011;53067;48.114;11.694;2023-01-29T15:43:49;13.43;;;9.93;;
16502;SDS011;53067;48.114;11.694;2023-01-29T15:46:29;14.97;;;10.23;;
16502;SDS011;53067;48.114;11.694;2023-01-29T15:48:56;10.90;;;8.10;;
16502;SDS011;53067;48.114;11.694;2023-01-29T15:51:26;9.80;;;7.43;;
16502;SDS011;53067;48.114;11.694;2023-01-29T15:53:55;9.23;;;6.93;;
16502;SDS011;53067;48.114;11.694;2023-01-29T15:56:45;9.57;;;7.83;;
16502;SDS011;53067;48.114;11.694;2023-01-29T15:59:07;9.87;;;7.97;;
16502;SDS011;53067;48.114;11.694;2023-01-29T16:01:38;8.97;;;7.63;;
16502;SDS011;53067;48.114;11.694;2023-01-29T16:04:05;12.40;;;8.37;;
16502;SDS011;53067;48.114;11.694;2023-01-29T16:06:36;10.17;;;7.87;;
16502;SDS011;53067;48.114;11.694;2023-01-29T16:09:06;11.77;;;8.57;;
16502;SDS011;53067;48.114;11.694;2023-01-29T16:11:35;11.47;;;8.50;;
16502;SDS011;53067;48.114;11.694;2023-01-29T16:14:05;10.47;;;8.53;;
16502;SDS011;53067;48.114;11.694;2023-01-29T16:16:33;12.03;;;8.67;;
16502;SDS011;53067;48.114;11.694;2023-01-29T16:19:01;10.13;;;8.57;;
16502;SDS011;53067;48.114;11.694;2023-01-29T16:21:35;12.67;;;8.83;;
16502;SDS011;53067;48.114;11.694;2023-01-29T16:24:09;12.07;;;9.73;;
16502;SDS011;53067;48.114;11.694;2023-01-29T16:26:49;12.83;;;8.63;;
16502;SDS011;53067;48.114;11.694;2023-01-29T16:29:27;9.70;;;8.70;;
16502;SDS011;53067;48.114;11.694;2023-01-29T16:31:44;10.00;;;8.63;;
16502;SDS011;53067;48.114;11.694;2023-01-29T16:36:57;15.30;;;10.70;;
16502;SDS011;53067;48.114;11.694;2023-01-29T16:39:31;10.70;;;8.50;;
16502;SDS011;53067;48.114;11.694;2023-01-29T16:42:23;10.63;;;7.83;;
16502;SDS011;53067;48.114;11.694;2023-01-29T16:49:52;9.20;;;7.40;;
16502;SDS011;53067;48.114;11.694;2023-01-29T16:52:30;9.90;;;7.93;;
16502;SDS011;53067;48.114;11.694;2023-01-29T16:55:16;11.07;;;9.50;;
16502;SDS011;53067;48.114;11.694;2023-01-29T16:57:39;10.47;;;8.70;;
16502;SDS011;53067;48.114;11.694;2023-01-29T17:00:17;13.30;;;9.83;;